Terminal Aerodrome Forecast
Issued by NWS

Home | Current Version | Previous Version | Text Only | Print | Product List | Glossary Off
Versions: 1 2 3 4 5 6 7 8 9 10 11 12 13 14 15 16

000
FTUS43 KMPX 152325
TAFAXN
TAF
KAXN 152325Z 1600/1624 32015G22KT P6SM OVC015
     FM160400 34009KT P6SM OVC015
     FM160800 36005KT P6SM BKN020
     FM161000 06004KT P6SM BKN035
     FM161300 12007KT P6SM OVC060
     FM161900 14018G26KT P6SM BKN150=

USA.gov is the U.S. government's official web portal to all federal, state and local government web resources and services.